Time;durP1;ratioP1;P1;durP2;ratioP2;P2;SDS_P1;SDS_P2;PMS_P1;PMS_P2;Temp;Humidity;BMP_temperature;BMP_pressure;BME280_temperature;BME280_humidity;BME280_pressure;Samples;Min_cycle;Max_cycle;Signal;HPM_P1;HPM_P2
2021/07/17 00:00:48;;;;;;;9.23;7.33;;;;;;;23.15;75.36;100769.03;5112747;28;20213;-64
2021/07/17 00:03:14;;;;;;;8.27;7.33;;;;;;;22.82;75.70;100775.44;5111757;27;20181;-64
2021/07/17 00:05:39;;;;;;;12.30;7.70;;;;;;;22.66;75.84;100773.38;5112652;28;20702;-64
2021/07/17 00:08:05;;;;;;;15.83;8.40;;;;;;;22.77;76.20;100783.94;5111715;28;20178;-64
2021/07/17 00:10:49;;;;;;;11.77;8.90;;;;;;;22.87;77.04;100765.44;5112215;28;20190;-64
2021/07/17 00:13:19;;;;;;;11.77;8.13;;;;;;;22.69;76.81;100765.94;5111783;27;20538;-64
2021/07/17 00:15:45;;;;;;;13.27;8.17;;;;;;;22.53;77.34;100756.19;5112492;28;20189;-64
2021/07/17 00:18:14;;;;;;;15.87;8.67;;;;;;;22.59;77.48;100756.94;5111877;28;20560;-64
2021/07/17 00:20:41;;;;;;;14.73;9.13;;;;;;;22.12;77.52;100653.44;5112311;28;20174;-65
2021/07/17 00:23:07;;;;;;;17.30;8.77;;;;;;;22.70;76.70;100742.84;5111507;28;20178;-64
2021/07/17 00:25:33;;;;;;;15.23;9.10;;;;;;;22.45;77.45;100724.06;5112186;28;20185;-64
2021/07/17 00:27:59;;;;;;;13.70;9.23;;;;;;;22.39;78.04;100745.84;5111859;27;20670;-64
2021/07/17 00:30:25;;;;;;;18.70;9.20;;;;;;;22.35;77.71;100725.56;5111621;28;20198;-64
2021/07/17 00:32:51;;;;;;;12.53;8.33;;;;;;;21.92;77.88;100642.34;5111165;28;20178;-64
2021/07/17 00:35:17;;;;;;;15.00;9.03;;;;;;;22.71;77.91;100763.38;5111910;28;20182;-64
2021/07/17 00:37:43;;;;;;;14.23;8.60;;;;;;;22.62;77.20;100730.50;5111365;28;20678;-66
2021/07/17 00:40:11;;;;;;;12.33;8.93;;;;;;;22.36;77.58;100690.38;5111020;28;20177;-65
2021/07/17 00:42:43;;;;;;;12.27;9.10;;;;;;;22.41;78.41;100706.56;5111159;28;20639;-64
2021/07/17 00:45:10;;;;;;;11.97;8.90;;;;;;;22.47;77.76;100692.50;5110549;28;20175;-64
2021/07/17 00:47:37;;;;;;;15.53;9.40;;;;;;;22.53;78.50;100696.88;5111564;28;20234;-64
2021/07/17 00:50:04;;;;;;;14.87;8.90;;;;;;;22.69;78.18;100709.44;5110925;28;20232;-64
2021/07/17 00:52:30;;;;;;;12.07;9.70;;;;;;;22.86;77.76;100701.72;5110719;28;20193;-65
2021/07/17 00:54:57;;;;;;;16.77;9.57;;;;;;;22.99;76.91;100702.75;5093327;28;20179;-64
2021/07/17 00:57:25;;;;;;;12.00;8.83;;;;;;;22.29;76.82;100560.25;5090953;28;20183;-64
2021/07/17 00:59:52;;;;;;;10.60;8.40;;;;;;;22.07;76.04;100554.63;5090355;28;20262;-64
2021/07/17 01:02:19;;;;;;;13.07;9.77;;;;;;;22.70;77.19;100696.84;5090704;28;20231;-64
2021/07/17 01:04:46;;;;;;;17.00;10.73;;;;;;;22.48;77.86;100694.03;5090648;28;20189;-64
2021/07/17 01:07:12;;;;;;;17.13;10.70;;;;;;;22.64;78.39;100699.69;5091262;28;20652;-64
2021/07/17 01:09:37;;;;;;;14.07;10.17;;;;;;;22.85;77.95;100709.44;5104204;28;20273;-64
2021/07/17 01:12:03;;;;;;;15.33;11.13;;;;;;;22.97;78.20;100713.78;5111050;28;20261;-64
2021/07/17 01:14:30;;;;;;;15.07;11.57;;;;;;;22.65;78.05;100661.69;5110586;28;20178;-64
2021/07/17 01:16:56;;;;;;;16.40;12.00;;;;;;;23.06;77.73;100701.44;5111328;28;20181;-65
2021/07/17 01:19:23;;;;;;;16.77;11.50;;;;;;;23.24;77.57;100720.72;5103381;28;20806;-64
2021/07/17 01:21:50;;;;;;;17.23;11.90;;;;;;;23.28;77.38;100715.59;5090704;28;20174;-65
2021/07/17 01:24:16;;;;;;;14.70;10.30;;;;;;;23.39;76.33;100705.00;5090242;28;20179;-64
2021/07/17 01:26:41;;;;;;;17.40;11.23;;;;;;;23.43;76.11;100699.84;5089570;28;20676;-65
2021/07/17 01:29:08;;;;;;;14.37;10.47;;;;;;;23.38;75.17;100702.72;5090959;28;20175;-64
2021/07/17 01:31:33;;;;;;;14.13;11.20;;;;;;;23.22;75.46;100695.78;5089784;28;20308;-64
2021/07/17 01:33:59;;;;;;;15.77;10.40;;;;;;;23.45;75.89;100713.47;5090096;28;20318;-64
2021/07/17 01:36:24;;;;;;;14.97;10.70;;;;;;;23.51;75.69;100706.53;5091030;28;20182;-64
2021/07/17 01:38:50;;;;;;;14.73;10.37;;;;;;;22.77;75.36;100578.44;5090921;28;20261;-65
2021/07/17 01:41:17;;;;;;;15.97;10.50;;;;;;;23.63;75.41;100704.41;5089699;28;20229;-65
2021/07/17 01:43:42;;;;;;;14.83;9.90;;;;;;;23.65;74.65;100721.63;5090519;28;20264;-67
2021/07/17 01:46:08;;;;;;;12.40;10.07;;;;;;;23.68;74.35;100720.59;5090744;28;20675;-65
2021/07/17 01:48:33;;;;;;;13.53;10.30;;;;;;;22.88;74.64;100591.78;5090582;28;20179;-65
2021/07/17 01:50:59;;;;;;;15.30;11.40;;;;;;;23.70;75.22;100704.63;5090255;28;20671;-65
2021/07/17 01:53:24;;;;;;;13.20;11.00;;;;;;;23.63;75.76;100695.91;5089457;28;20211;-64
2021/07/17 01:55:50;;;;;;;11.97;10.07;;;;;;;23.51;75.25;100698.03;5090388;28;20183;-65
2021/07/17 01:58:16;;;;;;;14.13;10.37;;;;;;;23.54;74.54;100718.84;5090679;28;20325;-65
2021/07/17 02:00:41;;;;;;;14.90;10.30;;;;;;;23.46;74.12;100712.97;5090069;28;20171;-67
2021/07/17 02:03:07;;;;;;;13.27;10.83;;;;;;;23.47;74.42;100716.53;5089430;28;20277;-65
2021/07/17 02:05:33;;;;;;;13.77;10.77;;;;;;;23.40;74.36;100712.22;5090429;28;20236;-65
2021/07/17 02:08:00;;;;;;;16.97;10.83;;;;;;;23.14;74.26;100700.41;5090545;28;20179;-64
2021/07/17 02:10:28;;;;;;;12.37;10.73;;;;;;;23.34;74.06;100722.00;5110674;28;20194;-64
2021/07/17 02:13:08;;;;;;;18.43;11.00;;;;;;;23.28;74.31;100715.59;5109316;28;20190;-64
2021/07/17 02:15:42;;;;;;;13.07;10.23;;;;;;;23.30;74.58;100719.44;5110754;28;20214;-65
2021/07/17 02:18:08;;;;;;;12.57;10.83;;;;;;;23.36;74.45;100725.84;5112161;28;20242;-64
2021/07/17 02:20:34;;;;;;;15.00;10.90;;;;;;;23.37;74.73;100724.56;5114611;28;20182;-65
2021/07/17 02:23:00;;;;;;;13.77;10.67;;;;;;;23.33;75.29;100714.81;5113005;28;20690;-64
2021/07/17 02:25:26;;;;;;;14.63;10.30;;;;;;;23.27;74.12;100703.50;5114488;28;20336;-65
2021/07/17 02:27:52;;;;;;;14.80;10.30;;;;;;;22.53;74.54;100622.66;5114575;28;20257;-65
2021/07/17 02:30:18;;;;;;;15.73;11.30;;;;;;;23.02;74.96;100715.84;5114444;28;20198;-64
2021/07/17 02:32:44;;;;;;;15.77;11.67;;;;;;;22.86;75.41;100708.16;5112758;28;20187;-65
2021/07/17 02:35:09;;;;;;;13.17;11.30;;;;;;;22.65;76.06;100695.59;5114291;28;20181;-64
2021/07/17 02:37:35;;;;;;;16.47;11.43;;;;;;;22.28;76.76;100682.94;5114158;28;20178;-64
2021/07/17 02:40:01;;;;;;;13.43;11.63;;;;;;;22.07;77.55;100664.69;5114126;28;20220;-64
2021/07/17 02:42:26;;;;;;;14.33;11.37;;;;;;;22.28;76.63;100695.03;5113057;28;20518;-67
2021/07/17 02:44:52;;;;;;;13.00;11.70;;;;;;;22.56;76.36;100726.91;5113640;28;20200;-65
2021/07/17 02:47:18;;;;;;;14.90;11.17;;;;;;;22.65;76.19;100721.00;5114101;28;20174;-64
2021/07/17 02:49:44;;;;;;;15.50;10.83;;;;;;;22.73;75.78;100716.38;5113952;28;20189;-64
2021/07/17 02:52:09;;;;;;;15.33;10.73;;;;;;;22.19;75.26;100630.34;5112474;28;20202;-64
2021/07/17 02:54:34;;;;;;;13.13;10.67;;;;;;;22.09;75.02;100603.63;5112741;28;20202;-64
2021/07/17 02:57:00;;;;;;;12.87;10.70;;;;;;;21.73;75.78;100584.09;5113698;27;20254;-65
2021/07/17 02:59:26;;;;;;;11.87;10.67;;;;;;;22.32;76.51;100686.28;5113628;28;20214;-64
2021/07/17 03:01:51;;;;;;;12.07;10.83;;;;;;;21.66;76.93;100593.81;5113916;28;20258;-64
2021/07/17 03:04:17;;;;;;;13.20;11.27;;;;;;;22.34;77.17;100697.84;5112296;28;20182;-64
2021/07/17 03:06:43;;;;;;;14.80;10.17;;;;;;;22.29;77.16;100705.03;5112279;28;20182;-64
2021/07/17 03:09:08;;;;;;;11.23;10.03;;;;;;;22.29;77.28;100696.56;5104010;28;20186;-64
2021/07/17 03:11:34;;;;;;;12.53;10.90;;;;;;;22.28;77.25;100709.13;5093145;28;20202;-64
2021/07/17 03:14:01;;;;;;;16.40;11.00;;;;;;;22.06;77.91;100706.25;5091868;28;20441;-64
2021/07/17 03:16:27;;;;;;;16.87;10.83;;;;;;;22.00;78.36;100713.94;5092903;28;20186;-65
2021/07/17 03:18:53;;;;;;;16.93;10.60;;;;;;;21.79;78.59;100686.41;5093230;28;20182;-64
2021/07/17 03:21:19;;;;;;;15.77;11.03;;;;;;;21.84;79.04;100700.53;5093128;28;20171;-66
2021/07/17 03:23:44;;;;;;;12.90;11.43;;;;;;;21.52;79.50;100642.72;5091913;28;20193;-65
2021/07/17 03:26:10;;;;;;;16.67;11.40;;;;;;;22.09;79.91;100716.53;5092666;28;20183;-64
2021/07/17 03:28:36;;;;;;;12.30;10.73;;;;;;;21.63;78.31;100634.28;5092642;28;20175;-65
2021/07/17 03:31:01;;;;;;;15.00;10.60;;;;;;;22.38;77.79;100716.09;5093001;28;20212;-65
2021/07/17 03:33:27;;;;;;;13.03;10.23;;;;;;;22.39;77.15;100694.25;5091727;28;20182;-64
2021/07/17 03:35:52;;;;;;;11.57;9.50;;;;;;;22.57;76.51;100717.13;5092151;28;20253;-65
2021/07/17 03:38:18;;;;;;;13.30;10.27;;;;;;;22.73;76.44;100721.25;5092876;28;20182;-64
2021/07/17 03:40:43;;;;;;;14.80;9.80;;;;;;;22.78;76.12;100707.13;5087508;28;20313;-64
2021/07/17 03:43:10;;;;;;;15.80;9.30;;;;;;;22.98;75.57;100726.63;5072780;28;20191;-64
2021/07/17 03:45:36;;;;;;;14.00;9.07;;;;;;;23.08;74.95;100730.72;5072039;28;20194;-65
2021/07/17 03:48:01;;;;;;;12.27;8.73;;;;;;;23.04;74.73;100715.34;5072342;28;20176;-64
2021/07/17 03:50:27;;;;;;;11.97;8.30;;;;;;;23.11;74.45;100721.22;5072055;28;20599;-64
2021/07/17 03:52:52;;;;;;;12.33;8.87;;;;;;;23.13;74.44;100723.56;5053527;28;20187;-64
2021/07/17 03:55:18;;;;;;;12.63;8.93;;;;;;;23.27;74.60;100734.59;5071474;28;20649;-67
2021/07/17 03:57:43;;;;;;;16.20;9.77;;;;;;;23.35;74.76;100734.84;5071689;28;20180;-64
2021/07/17 04:00:09;;;;;;;12.83;9.27;;;;;;;23.42;74.07;100742.78;5072199;28;20321;-64
2021/07/17 04:02:40;;;;;;;11.70;8.83;;;;;;;22.87;73.58;100653.19;5071085;28;20215;-64
2021/07/17 04:05:08;;;;;;;12.87;9.60;;;;;;;23.56;73.12;100748.16;5071624;28;20186;-64
2021/07/17 04:07:34;;;;;;;12.23;9.83;;;;;;;23.61;72.66;100743.75;5089104;28;20254;-64
2021/07/17 04:09:59;;;;;;;14.10;10.20;;;;;;;22.96;72.73;100643.66;5091778;28;20640;-65
2021/07/17 04:12:25;;;;;;;13.37;9.40;;;;;;;23.74;72.30;100729.84;5091417;28;20179;-65
2021/07/17 04:14:50;;;;;;;11.73;10.23;;;;;;;23.15;71.86;100628.47;5091894;28;20171;-65
2021/07/17 04:17:16;;;;;;;14.07;10.23;;;;;;;22.95;72.33;100579.94;5091272;28;20178;-65
2021/07/17 04:19:41;;;;;;;11.83;9.17;;;;;;;23.87;72.14;100725.16;5091893;28;20175;-65
2021/07/17 04:22:07;;;;;;;11.77;9.30;;;;;;;23.78;72.64;100724.66;5091841;28;20664;-64
2021/07/17 04:24:33;;;;;;;12.87;9.97;;;;;;;23.75;73.15;100705.91;5091095;28;20171;-65
2021/07/17 04:26:58;;;;;;;13.57;9.87;;;;;;;24.01;72.56;100731.81;5090889;28;20228;-64
2021/07/17 04:29:24;;;;;;;10.70;9.60;;;;;;;24.10;72.92;100728.66;5091860;28;20229;-65
2021/07/17 04:31:49;;;;;;;11.70;10.40;;;;;;;24.25;72.42;100741.19;5091548;28;20194;-65
2021/07/17 04:34:15;;;;;;;11.67;9.90;;;;;;;24.36;72.70;100740.34;5090983;28;20171;-65
2021/07/17 04:36:40;;;;;;;12.00;9.80;;;;;;;24.49;71.56;100737.69;5090915;28;20623;-65
2021/07/17 04:39:06;;;;;;;12.30;9.53;;;;;;;24.54;70.99;100739.69;5091311;28;20178;-65
2021/07/17 04:41:31;;;;;;;12.10;9.90;;;;;;;24.66;70.70;100752.53;5102549;27;20780;-65
2021/07/17 04:43:57;;;;;;;17.83;10.97;;;;;;;24.72;70.63;100736.25;5092854;28;20178;-65
2021/07/17 04:46:22;;;;;;;15.00;12.53;;;;;;;24.68;70.42;100745.06;5111684;28;20174;-65
2021/07/17 04:48:48;;;;;;;15.87;12.13;;;;;;;24.47;70.19;100737.44;5111218;28;20198;-65
2021/07/17 04:51:14;;;;;;;13.77;12.17;;;;;;;24.41;70.78;100740.31;5111723;28;20197;-65
2021/07/17 04:53:39;;;;;;;16.83;11.73;;;;;;;24.37;70.40;100742.63;5110811;28;20591;-65
2021/07/17 04:56:05;;;;;;;18.47;13.77;;;;;;;24.14;71.66;100712.16;5111111;28;20170;-65
2021/07/17 04:58:30;;;;;;;18.23;14.20;;;;;;;23.76;72.67;100674.28;5110815;28;20181;-65
2021/07/17 05:00:56;;;;;;;13.23;11.03;;;;;;;23.80;71.74;100660.59;5111580;28;20241;-65
2021/07/17 05:03:21;;;;;;;16.60;10.70;;;;;;;24.43;71.94;100728.44;5110886;28;20182;-65
2021/07/17 05:05:47;;;;;;;12.77;10.97;;;;;;;24.30;72.36;100709.22;5111453;28;20170;-65
2021/07/17 05:08:13;;;;;;;17.43;10.40;;;;;;;24.48;72.76;100728.44;5110394;28;20166;-65
2021/07/17 05:10:38;;;;;;;12.40;9.37;;;;;;;24.57;71.92;100724.50;5111381;28;20565;-65
2021/07/17 05:13:14;;;;;;;14.27;9.93;;;;;;;24.84;71.63;100727.16;5110652;28;20186;-65
2021/07/17 05:15:40;;;;;;;11.43;9.07;;;;;;;24.87;69.02;100720.41;5111300;28;20436;-65
2021/07/17 05:18:06;;;;;;;16.53;9.57;;;;;;;24.90;69.13;100710.06;5110609;28;20178;-65
2021/07/17 05:20:32;;;;;;;15.47;10.53;;;;;;;25.11;69.48;100722.50;5111209;28;20167;-65
2021/07/17 05:22:58;;;;;;;11.73;9.07;;;;;;;24.81;68.86;100671.50;5110549;28;20651;-65
2021/07/17 05:25:24;;;;;;;14.10;8.80;;;;;;;24.49;68.10;100624.38;5111381;28;20261;-65
2021/07/17 05:27:49;;;;;;;11.30;8.37;;;;;;;25.01;66.78;100701.47;5092386;28;20188;-65
2021/07/17 05:30:15;;;;;;;14.00;8.80;;;;;;;25.26;66.90;100720.06;5110734;28;20190;-65
2021/07/17 05:32:40;;;;;;;13.80;8.77;;;;;;;25.27;66.58;100696.84;5110221;28;20181;-65
2021/07/17 05:35:06;;;;;;;16.40;9.27;;;;;;;25.48;67.27;100705.66;5111179;28;20194;-65
2021/07/17 05:37:32;;;;;;;13.53;9.20;;;;;;;25.52;65.57;100711.78;5110748;28;20176;-65
2021/07/17 05:39:57;;;;;;;14.00;9.57;;;;;;;25.43;67.30;100721.41;5110691;28;20170;-65
2021/07/17 05:42:24;;;;;;;13.13;9.13;;;;;;;25.47;65.64;100726.78;5110427;28;20264;-65
2021/07/17 05:44:50;;;;;;;14.97;9.40;;;;;;;23.95;64.97;100530.84;5110768;28;20231;-65
2021/07/17 05:47:15;;;;;;;19.40;9.47;;;;;;;25.14;65.01;100727.13;5092774;28;20178;-65
2021/07/17 05:49:42;;;;;;;15.30;9.73;;;;;;;24.91;65.76;100715.22;5110131;28;20788;-65
2021/07/17 05:52:07;;;;;;;15.90;9.33;;;;;;;24.96;65.56;100731.41;5112027;28;20194;-65
2021/07/17 05:54:33;;;;;;;14.20;9.80;;;;;;;24.98;65.35;100725.97;5114811;28;20184;-65
2021/07/17 05:56:58;;;;;;;13.50;9.53;;;;;;;24.90;64.51;100725.03;5114757;28;20255;-65
2021/07/17 05:59:24;;;;;;;15.40;10.30;;;;;;;24.99;64.54;100732.41;5114390;28;20685;-66
2021/07/17 06:01:49;;;;;;;15.47;10.07;;;;;;;24.86;65.48;100726.59;5114911;28;20716;-65
2021/07/17 06:04:15;;;;;;;18.27;10.50;;;;;;;24.88;65.01;100718.34;5114248;28;20372;-65
2021/07/17 06:06:40;;;;;;;13.90;10.67;;;;;;;24.98;65.50;100719.53;5114867;28;20174;-65
2021/07/17 06:09:06;;;;;;;12.90;10.37;;;;;;;25.23;64.72;100732.44;5114414;28;20176;-65
2021/07/17 06:11:31;;;;;;;13.00;11.30;;;;;;;24.65;64.97;100629.91;5114097;28;20198;-65
2021/07/17 06:13:57;;;;;;;16.47;11.70;;;;;;;25.61;64.35;100734.91;5114068;28;20170;-65
2021/07/17 06:16:22;;;;;;;16.07;10.90;;;;;;;25.57;62.86;100727.97;5114821;28;20602;-66
2021/07/17 06:18:48;;;;;;;13.37;10.70;;;;;;;25.61;62.52;100734.91;5114243;28;20170;-65
2021/07/17 06:21:13;;;;;;;15.53;10.87;;;;;;;25.58;62.80;100740.88;5114330;28;20178;-65
2021/07/17 06:23:39;;;;;;;16.47;9.53;;;;;;;25.53;62.82;100722.59;5113681;28;20678;-65
2021/07/17 06:26:05;;;;;;;14.73;9.20;;;;;;;25.52;61.31;100720.28;5114566;28;20675;-66
2021/07/17 06:28:31;;;;;;;13.10;8.57;;;;;;;25.57;60.12;100725.13;5114488;28;20172;-66
2021/07/17 06:30:57;;;;;;;15.97;8.77;;;;;;;25.63;60.42;100737.97;5113436;28;20571;-65
2021/07/17 06:33:22;;;;;;;13.87;8.90;;;;;;;24.99;59.07;100661.53;5113593;28;20235;-65
2021/07/17 06:35:48;;;;;;;10.80;8.33;;;;;;;25.57;59.14;100740.09;5114234;28;20197;-66
2021/07/17 06:38:13;;;;;;;11.80;7.93;;;;;;;25.16;59.32;100668.56;5114420;28;20178;-65
2021/07/17 06:40:39;;;;;;;17.23;8.73;;;;;;;25.67;58.99;100729.13;5113256;28;20394;-65
2021/07/17 06:43:04;;;;;;;15.53;8.40;;;;;;;25.83;59.70;100745.19;5113184;28;20173;-65
2021/07/17 06:45:30;;;;;;;12.57;8.13;;;;;;;25.96;59.46;100743.28;5114203;28;20178;-65
2021/07/17 06:47:55;;;;;;;15.00;8.50;;;;;;;25.90;57.81;100744.59;5113888;28;20174;-65
2021/07/17 06:50:22;;;;;;;12.73;7.70;;;;;;;26.01;58.43;100750.94;5113596;28;20217;-66
2021/07/17 06:52:48;;;;;;;15.73;7.80;;;;;;;25.99;57.33;100750.69;5112861;28;20725;-66
2021/07/17 06:55:14;;;;;;;11.27;7.70;;;;;;;25.91;57.76;100741.28;5113792;28;20171;-66
2021/07/17 06:57:41;;;;;;;12.13;7.67;;;;;;;25.80;58.18;100726.41;5113403;28;20255;-66
2021/07/17 07:00:09;;;;;;;14.00;7.57;;;;;;;25.93;57.77;100747.16;5113779;28;20634;-66
2021/07/17 07:02:35;;;;;;;12.70;7.27;;;;;;;25.35;58.84;100685.66;5111928;28;20651;-66
2021/07/17 07:05:01;;;;;;;10.73;7.33;;;;;;;25.67;56.93;100731.97;5113776;28;20174;-66
2021/07/17 07:07:26;;;;;;;14.83;8.47;;;;;;;25.61;58.68;100743.41;5095464;28;20185;-66
2021/07/17 07:09:52;;;;;;;11.17;8.23;;;;;;;25.54;58.67;100741.16;5113306;28;20189;-66
2021/07/17 07:12:17;;;;;;;17.03;7.87;;;;;;;25.62;59.33;100742.09;5112309;28;20178;-66
2021/07/17 07:14:43;;;;;;;12.83;8.77;;;;;;;25.52;59.57;100737.31;5113203;28;20190;-66
2021/07/17 07:17:09;;;;;;;19.33;9.37;;;;;;;24.76;60.04;100648.88;5113626;28;20217;-66
2021/07/17 07:19:35;;;;;;;16.27;9.33;;;;;;;25.66;60.44;100733.28;5113530;28;20655;-66
2021/07/17 07:22:03;;;;;;;18.80;10.23;;;;;;;25.79;59.17;100725.63;5112650;28;20170;-66
2021/07/17 07:24:29;;;;;;;14.40;10.53;;;;;;;25.70;60.99;100733.75;5112612;28;20601;-66
2021/07/17 07:26:56;;;;;;;15.97;9.90;;;;;;;25.71;59.87;100736.06;5113209;28;20233;-66
2021/07/17 07:29:23;;;;;;;13.80;9.40;;;;;;;25.73;59.64;100736.28;5113339;28;20170;-66
2021/07/17 07:31:48;;;;;;;17.73;10.20;;;;;;;25.82;59.96;100730.25;5094548;28;20261;-66
2021/07/17 07:34:14;;;;;;;14.60;10.43;;;;;;;25.87;59.40;100732.25;5112207;28;20182;-66
2021/07/17 07:36:39;;;;;;;17.93;9.60;;;;;;;25.89;59.14;100734.56;5113086;28;20255;-67
2021/07/17 07:39:05;;;;;;;14.00;9.43;;;;;;;25.74;59.53;100686.72;5113221;28;20562;-67
2021/07/17 07:41:30;;;;;;;13.07;9.87;;;;;;;26.13;59.53;100726.75;5112729;28;20218;-67
2021/07/17 07:43:56;;;;;;;14.17;9.80;;;;;;;26.30;59.70;100730.13;5111579;28;20174;-67
2021/07/17 07:46:21;;;;;;;16.50;9.90;;;;;;;26.27;58.13;100730.44;5113179;28;20291;-67
2021/07/17 07:48:48;;;;;;;17.57;9.97;;;;;;;25.96;58.69;100686.47;5112729;28;20294;-67
2021/07/17 07:51:14;;;;;;;14.27;10.07;;;;;;;26.42;58.46;100736.41;5112805;28;20202;-67
2021/07/17 07:53:40;;;;;;;13.53;10.30;;;;;;;26.34;58.72;100705.03;5111342;28;20552;-67
2021/07/17 07:56:06;;;;;;;16.27;9.93;;;;;;;26.77;57.47;100734.06;5112267;28;20743;-67
2021/07/17 07:58:32;;;;;;;14.73;10.60;;;;;;;26.82;56.96;100738.16;5094518;28;20206;-67
2021/07/17 08:00:58;;;;;;;18.07;9.60;;;;;;;26.79;56.45;100714.41;5112612;28;20205;-67
2021/07/17 08:03:23;;;;;;;14.80;10.03;;;;;;;27.17;57.27;100727.19;5111303;28;20198;-67
2021/07/17 08:05:49;;;;;;;15.03;10.43;;;;;;;26.86;57.25;100671.09;5112355;28;20686;-67
2021/07/17 08:08:14;;;;;;;16.27;9.93;;;;;;;27.37;56.54;100748.56;5112608;28;20192;-67
2021/07/17 08:10:40;;;;;;;15.77;9.60;;;;;;;27.30;54.36;100744.31;5112336;28;20575;-67
2021/07/17 08:13:05;;;;;;;14.30;9.63;;;;;;;27.41;54.28;100751.84;5111184;28;20520;-67
2021/07/17 08:15:31;;;;;;;13.00;9.37;;;;;;;26.56;53.54;100644.25;5111218;28;20174;-67
2021/07/17 08:17:57;;;;;;;17.30;9.70;;;;;;;27.23;53.45;100749.88;5112153;28;20639;-67
2021/07/17 08:20:23;;;;;;;15.63;9.77;;;;;;;27.25;54.10;100750.06;5093994;28;20253;-67
2021/07/17 08:22:49;;;;;;;14.47;9.80;;;;;;;27.54;54.90;100746.19;5111196;28;20556;-67
2021/07/17 08:25:15;;;;;;;11.82;9.90;;;;;;;27.76;54.95;100745.72;5111703;28;20181;-67
2021/07/17 08:27:40;;;;;;;14.23;10.33;;;;;;;27.23;54.16;100701.50;5111956;28;20581;-67
2021/07/17 08:30:07;;;;;;;18.03;10.47;;;;;;;27.49;54.53;100747.06;5112143;28;20166;-67
2021/07/17 08:32:32;;;;;;;17.25;10.68;;;;;;;27.59;55.54;100734.66;5111309;28;20214;-67
2021/07/17 08:34:58;;;;;;;16.20;10.87;;;;;;;27.38;54.55;100688.25;5110984;28;20291;-67
2021/07/17 08:37:23;;;;;;;11.63;9.80;;;;;;;27.87;54.43;100734.91;5112058;28;20182;-67
2021/07/17 08:39:49;;;;;;;13.27;9.77;;;;;;;28.15;53.58;100726.50;5111916;28;20227;-67
2021/07/17 08:42:18;;;;;;;19.67;9.63;;;;;;;28.06;52.45;100727.00;5111224;28;20213;-67
2021/07/17 08:44:47;;;;;;;14.97;9.23;;;;;;;28.22;52.03;100702.28;5110647;28;20174;-67
2021/07/17 08:47:14;;;;;;;13.23;9.80;;;;;;;28.06;52.70;100700.56;5112103;28;20170;-67
2021/07/17 08:49:40;;;;;;;11.87;8.67;;;;;;;28.25;52.03;100710.47;5111677;28;20178;-67
2021/07/17 08:52:06;;;;;;;18.37;8.90;;;;;;;28.45;51.65;100718.34;5111619;28;20193;-67
2021/07/17 08:54:32;;;;;;;13.10;8.87;;;;;;;28.54;51.77;100722.78;5110919;28;20572;-67
2021/07/17 08:56:57;;;;;;;15.23;8.30;;;;;;;28.64;52.19;100733.19;5110384;28;20241;-67
2021/07/17 08:59:23;;;;;;;16.10;7.70;;;;;;;28.93;52.47;100725.47;5111724;28;20174;-67
2021/07/17 09:01:49;;;;;;;14.43;8.03;;;;;;;29.20;50.58;100732.56;5111747;28;20167;-67
2021/07/17 09:04:15;;;;;;;10.07;8.02;;;;;;;29.15;50.75;100730.59;5110407;28;20613;-67
2021/07/17 09:06:41;;;;;;;11.20;7.80;;;;;;;29.27;51.65;100729.00;5111035;28;20220;-67
2021/07/17 09:09:07;;;;;;;9.43;8.13;;;;;;;29.41;49.08;100708.34;5111116;28;20174;-67
2021/07/17 09:11:40;;;;;;;12.80;8.88;;;;;;;29.76;47.58;100732.56;5111323;28;20201;-67
2021/07/17 09:14:07;;;;;;;12.25;9.02;;;;;;;30.06;47.95;100727.78;5110628;28;20197;-67
2021/07/17 09:16:36;;;;;;;12.10;9.15;;;;;;;30.15;46.64;100724.38;5110706;28;20170;-67
2021/07/17 09:19:04;;;;;;;14.10;8.43;;;;;;;30.40;47.20;100727.53;5111204;28;20193;-67
2021/07/17 09:21:34;;;;;;;12.98;8.95;;;;;;;30.48;46.75;100717.63;5111389;28;20170;-67
2021/07/17 09:24:05;;;;;;;13.75;8.43;;;;;;;30.54;45.80;100715.34;5110271;28;20171;-67
2021/07/17 09:26:33;;;;;;;15.52;9.35;;;;;;;30.61;46.29;100713.84;5110420;28;20417;-67
2021/07/17 09:28:58;;;;;;;10.52;8.45;;;;;;;30.94;46.43;100721.34;5111143;28;20647;-67
2021/07/17 09:31:26;;;;;;;13.77;8.52;;;;;;;31.17;46.57;100710.66;5110937;28;20201;-67
2021/07/17 09:34:00;;;;;;;12.35;8.45;;;;;;;31.35;44.93;100709.50;5110273;28;20263;-67
2021/07/17 09:36:26;;;;;;;9.50;7.93;;;;;;;31.10;43.87;100674.19;5110202;28;20162;-67
2021/07/17 09:38:52;;;;;;;11.88;7.82;;;;;;;31.36;43.29;100711.03;5110938;28;20682;-67
2021/07/17 09:41:20;;;;;;;11.43;8.35;;;;;;;31.15;43.49;100708.38;5110904;28;20306;-67
2021/07/17 09:43:45;;;;;;;12.55;8.93;;;;;;;30.99;44.81;100697.47;5110193;28;20174;-67
2021/07/17 09:46:20;;;;;;;11.15;8.05;;;;;;;31.07;45.59;100698.25;5110594;28;20586;-67
2021/07/17 09:48:54;;;;;;;10.77;8.00;;;;;;;31.20;45.97;100693.13;5110455;28;20166;-67
2021/07/17 09:51:24;;;;;;;9.20;8.30;;;;;;;31.63;45.82;100694.94;5110973;28;20268;-67
2021/07/17 09:53:55;;;;;;;14.57;8.50;;;;;;;31.17;44.72;100576.84;5110147;28;20181;-67
2021/07/17 09:56:26;;;;;;;11.77;7.78;;;;;;;31.54;43.42;100601.00;5091783;28;20182;-67
2021/07/17 09:58:54;;;;;;;11.00;7.63;;;;;;;32.23;42.44;100674.63;5110374;28;20158;-67
2021/07/17 10:01:25;;;;;;;12.95;8.00;;;;;;;32.02;42.47;100677.03;5110895;28;20167;-67
2021/07/17 10:03:56;;;;;;;10.48;7.70;;;;;;;32.03;42.54;100684.28;5110203;28;20653;-67
2021/07/17 10:06:45;;;;;;;11.00;7.32;;;;;;;32.04;40.91;100688.69;5110406;28;20166;-67
2021/07/17 10:09:14;;;;;;;10.90;6.88;;;;;;;32.35;41.30;100681.47;5110339;28;20166;-67
2021/07/17 10:11:41;;;;;;;9.98;7.35;;;;;;;32.54;41.09;100681.72;5110786;28;20685;-67
2021/07/17 10:14:17;;;;;;;11.90;7.25;;;;;;;32.53;40.46;100683.06;5109925;28;20178;-67
2021/07/17 10:16:43;;;;;;;9.80;7.22;;;;;;;32.78;41.06;100676.03;5110331;28;20617;-67
2021/07/17 10:19:09;;;;;;;11.88;7.80;;;;;;;32.85;41.17;100683.06;5110191;28;20651;-67
2021/07/17 10:21:35;;;;;;;9.93;7.25;;;;;;;32.77;39.70;100670.84;5110624;28;20170;-67
2021/07/17 10:24:02;;;;;;;11.20;7.80;;;;;;;32.46;40.38;100598.56;5109878;28;20186;-67
2021/07/17 10:26:28;;;;;;;10.60;7.60;;;;;;;32.87;39.80;100666.00;5110768;28;20181;-67
2021/07/17 10:28:59;;;;;;;10.65;7.32;;;;;;;32.99;40.54;100664.16;5109641;28;20534;-67
2021/07/17 10:31:24;;;;;;;11.85;7.05;;;;;;;32.58;40.76;100576.69;5110542;28;20198;-67
2021/07/17 10:33:50;;;;;;;9.25;6.68;;;;;;;33.27;40.44;100661.59;5110063;28;20720;-67
2021/07/17 10:36:16;;;;;;;10.93;6.88;;;;;;;33.40;39.48;100660.53;5110601;28;20162;-67
2021/07/17 10:38:44;;;;;;;9.13;6.75;;;;;;;33.63;40.99;100658.91;5111805;28;20256;-67
2021/07/17 10:41:15;;;;;;;13.70;7.55;;;;;;;33.54;39.71;100655.97;5114076;28;20218;-67
2021/07/17 10:43:41;;;;;;;11.70;7.68;;;;;;;33.49;39.97;100643.38;5113527;28;20220;-67
2021/07/17 10:46:29;;;;;;;13.27;7.63;;;;;;;33.67;39.23;100650.63;5114100;28;20200;-67
2021/07/17 10:48:56;;;;;;;9.88;7.32;;;;;;;33.65;38.96;100650.47;5113083;28;20243;-67
2021/07/17 10:51:22;;;;;;;10.60;7.28;;;;;;;33.78;39.35;100644.38;5113959;28;20194;-67
2021/07/17 10:53:49;;;;;;;11.15;7.10;;;;;;;34.06;39.90;100640.94;5113288;28;20182;-67
2021/07/17 10:56:27;;;;;;;12.18;6.20;;;;;;;34.30;38.29;100648.66;5113399;28;20183;-67
2021/07/17 10:58:57;;;;;;;11.82;6.72;;;;;;;34.20;37.59;100635.56;5113460;28;20238;-67
2021/07/17 11:01:24;;;;;;;12.68;6.88;;;;;;;34.19;37.65;100634.06;5113697;28;20162;-67
2021/07/17 11:03:50;;;;;;;12.45;6.35;;;;;;;33.68;37.74;100548.69;5113039;28;20174;-67
2021/07/17 11:06:21;;;;;;;10.45;6.40;;;;;;;34.48;37.88;100629.22;5113967;28;20603;-67
2021/07/17 11:08:47;;;;;;;11.77;6.65;;;;;;;33.93;38.05;100557.94;5113280;28;20182;-67
2021/07/17 11:11:27;;;;;;;9.88;6.68;;;;;;;34.58;36.84;100625.03;5094692;28;20201;-67